SWA427 KABQ-KLAX
Flight info
| Callsign | SWA427 |
|---|---|
| Flight time | 1h 54m |
| Altitude | 38000 |
| Route | RDRNR3 ZUN J6 DRK HIPPI GABBL HLYWD1 |
| Aircraft | A20N/M-SDE2E3FGHIRWXY/LB1 |
Departure
| Time | 2026-05-04 00:39 |
|---|---|
| Airport | Albuquerque International Sunport (KABQ) |
Arrival
| Time | 2026-05-04 02:33 |
|---|---|
| Airport | Los Angeles International Airport (KLAX) |
| Time | Latitude | Longitude | Altitude | Speed | Heading |
|---|---|---|---|---|---|
| 2026-05-04 00:19 | 35.04693 | -106.61453 | 5338 ft | 0 kts | 325° |
| 2026-05-04 00:28 | 35.04683 | -106.61444 | 5336 ft | 2 kts | 324° |
| 2026-05-04 00:28 | 35.04669 | -106.61432 | 5336 ft | 2 kts | 325° |
| 2026-05-04 00:29 | 35.04656 | -106.61421 | 5335 ft | 2 kts | 325° |
| 2026-05-04 00:29 | 35.04642 | -106.61409 | 5336 ft | 2 kts | 319° |
| 2026-05-04 00:29 | 35.04632 | -106.61394 | 5337 ft | 2 kts | 281° |
| 2026-05-04 00:29 | 35.04630 | -106.61374 | 5337 ft | 2 kts | 277° |
| 2026-05-04 00:30 | 35.04630 | -106.61369 | 5337 ft | 0 kts | 279° |
| 2026-05-04 00:32 | 35.04630 | -106.61374 | 5337 ft | 2 kts | 277° |
| 2026-05-04 00:32 | 35.04625 | -106.61419 | 5333 ft | 10 kts | 256° |
| 2026-05-04 00:33 | 35.04590 | -106.61546 | 5320 ft | 20 kts | 251° |
| 2026-05-04 00:33 | 35.04558 | -106.61935 | 5323 ft | 26 kts | 269° |
| 2026-05-04 00:33 | 35.04557 | -106.62055 | 5322 ft | 4 kts | 269° |
| 2026-05-04 00:34 | 35.04557 | -106.62069 | 5322 ft | 0 kts | 269° |
| 2026-05-04 00:35 | 35.04556 | -106.62083 | 5322 ft | 4 kts | 263° |
| 2026-05-04 00:35 | 35.04554 | -106.62099 | 5314 ft | 3 kts | 262° |
| 2026-05-04 00:35 | 35.04546 | -106.62123 | 5321 ft | 6 kts | 237° |
| 2026-05-04 00:35 | 35.04524 | -106.62136 | 5316 ft | 0 kts | 192° |
| 2026-05-04 00:36 | 35.04512 | -106.62139 | 5320 ft | 5 kts | 192° |
| 2026-05-04 00:36 | 35.04459 | -106.62147 | 5319 ft | 9 kts | 181° |
| 2026-05-04 00:37 | 35.04435 | -106.62116 | 5319 ft | 6 kts | 90° |
| 2026-05-04 00:37 | 35.04434 | -106.62077 | 5321 ft | 0 kts | 91° |
| 2026-05-04 00:37 | 35.04434 | -106.62074 | 5324 ft | 2 kts | 91° |
| 2026-05-04 00:38 | 35.04433 | -106.61879 | 5323 ft | 54 kts | 88° |
| 2026-05-04 00:38 | 35.04428 | -106.61156 | 5334 ft | 113 kts | 90° |
| 2026-05-04 00:38 | 35.04421 | -106.59994 | 5337 ft | 158 kts | 90° |
| 2026-05-04 00:38 | 35.04399 | -106.58512 | 5438 ft | 186 kts | 93° |
| 2026-05-04 00:39 | 35.04443 | -106.56901 | 5956 ft | 195 kts | 86° |
| 2026-05-04 00:39 | 35.04634 | -106.55200 | 6409 ft | 209 kts | 85° |
| 2026-05-04 00:39 | 35.04834 | -106.53453 | 7075 ft | 203 kts | 87° |
| 2026-05-04 00:39 | 35.04971 | -106.51723 | 7629 ft | 206 kts | 89° |
| 2026-05-04 00:40 | 35.05162 | -106.49973 | 8132 ft | 217 kts | 73° |
| 2026-05-04 00:40 | 35.06024 | -106.48418 | 8656 ft | 230 kts | 38° |
| 2026-05-04 00:40 | 35.07544 | -106.47614 | 8954 ft | 252 kts | 4° |
| 2026-05-04 00:40 | 35.09340 | -106.47887 | 9275 ft | 273 kts | 333° |
| 2026-05-04 00:41 | 35.10895 | -106.49287 | 9763 ft | 287 kts | 305° |
| 2026-05-04 00:41 | 35.11741 | -106.51473 | 10550 ft | 287 kts | 279° |
| 2026-05-04 00:41 | 35.11732 | -106.53932 | 11227 ft | 300 kts | 257° |
| 2026-05-04 00:41 | 35.10994 | -106.56405 | 11618 ft | 323 kts | 247° |
| 2026-05-04 00:42 | 35.10164 | -106.59021 | 12313 ft | 332 kts | 253° |
| 2026-05-04 00:42 | 35.09625 | -106.61768 | 13280 ft | 334 kts | 261° |
| 2026-05-04 00:42 | 35.09346 | -106.64595 | 14210 ft | 337 kts | 266° |
| 2026-05-04 00:42 | 35.09228 | -106.67435 | 14999 ft | 341 kts | 268° |
| 2026-05-04 00:43 | 35.09182 | -106.70295 | 15786 ft | 346 kts | 269° |
| 2026-05-04 00:43 | 35.09160 | -106.73270 | 16581 ft | 350 kts | 269° |
| 2026-05-04 00:43 | 35.09244 | -106.76253 | 17368 ft | 354 kts | 275° |
| 2026-05-04 00:43 | 35.09478 | -106.78278 | 17852 ft | 358 kts | 279° |
| 2026-05-04 00:44 | 35.10104 | -106.82266 | 18838 ft | 362 kts | 279° |
| 2026-05-04 00:44 | 35.10418 | -106.84311 | 19367 ft | 362 kts | 279° |
| 2026-05-04 00:44 | 35.10791 | -106.87358 | 20161 ft | 362 kts | 274° |
| 2026-05-04 00:44 | 35.10810 | -106.90426 | 20905 ft | 363 kts | 266° |
| 2026-05-04 00:45 | 35.10461 | -106.93491 | 21640 ft | 365 kts | 258° |
| 2026-05-04 00:45 | 35.09859 | -106.96465 | 22340 ft | 367 kts | 257° |
| 2026-05-04 00:45 | 35.09243 | -106.99495 | 23039 ft | 369 kts | 257° |
| 2026-05-04 00:45 | 35.08631 | -107.02545 | 23708 ft | 370 kts | 257° |
| 2026-05-04 00:46 | 35.08053 | -107.05428 | 24274 ft | 371 kts | 258° |
| 2026-05-04 00:46 | 35.07420 | -107.08581 | 24929 ft | 370 kts | 258° |
| 2026-05-04 00:46 | 35.06802 | -107.11646 | 25536 ft | 371 kts | 258° |
| 2026-05-04 00:46 | 35.06186 | -107.14697 | 26118 ft | 371 kts | 258° |
| 2026-05-04 00:47 | 35.05566 | -107.17770 | 26598 ft | 373 kts | 258° |
| 2026-05-04 00:47 | 35.04943 | -107.20841 | 27211 ft | 373 kts | 258° |
| 2026-05-04 00:47 | 35.04320 | -107.23919 | 27768 ft | 374 kts | 259° |
| 2026-05-04 00:47 | 35.03838 | -107.27030 | 28288 ft | 374 kts | 264° |
| 2026-05-04 00:48 | 35.03624 | -107.30190 | 28789 ft | 374 kts | 269° |
| 2026-05-04 00:48 | 35.03540 | -107.33364 | 29287 ft | 375 kts | 269° |
| 2026-05-04 00:48 | 35.03446 | -107.36556 | 29746 ft | 377 kts | 268° |
| 2026-05-04 00:48 | 35.03347 | -107.39759 | 30198 ft | 378 kts | 268° |
| 2026-05-04 00:49 | 35.03246 | -107.42975 | 30560 ft | 380 kts | 268° |
| 2026-05-04 00:49 | 35.03143 | -107.46204 | 30921 ft | 382 kts | 268° |
| 2026-05-04 00:49 | 35.03040 | -107.49433 | 31342 ft | 382 kts | 268° |
| 2026-05-04 00:49 | 35.02935 | -107.52672 | 31878 ft | 380 kts | 268° |
| 2026-05-04 00:50 | 35.02836 | -107.55680 | 32420 ft | 377 kts | 268° |
| 2026-05-04 00:50 | 35.02731 | -107.58880 | 32896 ft | 376 kts | 268° |
| 2026-05-04 00:50 | 35.02626 | -107.62062 | 33401 ft | 375 kts | 268° |
| 2026-05-04 00:50 | 35.02521 | -107.65224 | 33899 ft | 373 kts | 268° |
| 2026-05-04 00:51 | 35.02416 | -107.68374 | 34312 ft | 371 kts | 268° |
| 2026-05-04 00:51 | 35.02310 | -107.71518 | 34742 ft | 369 kts | 268° |
| 2026-05-04 00:51 | 35.02223 | -107.74069 | 35080 ft | 367 kts | 268° |
| 2026-05-04 00:52 | 35.02091 | -107.77906 | 35537 ft | 365 kts | 268° |
| 2026-05-04 00:52 | 35.01984 | -107.80991 | 35899 ft | 364 kts | 268° |
| 2026-05-04 00:52 | 35.01877 | -107.84078 | 36244 ft | 363 kts | 268° |
| 2026-05-04 00:52 | 35.01770 | -107.87145 | 36603 ft | 361 kts | 268° |
| 2026-05-04 00:53 | 35.01662 | -107.90204 | 36894 ft | 360 kts | 268° |
| 2026-05-04 00:53 | 35.01555 | -107.93247 | 37189 ft | 359 kts | 268° |
| 2026-05-04 00:53 | 35.01448 | -107.96251 | 37453 ft | 359 kts | 268° |
| 2026-05-04 00:53 | 35.01338 | -107.99286 | 37738 ft | 358 kts | 268° |
| 2026-05-04 00:54 | 35.01229 | -108.02316 | 37994 ft | 357 kts | 268° |
| 2026-05-04 00:54 | 35.01008 | -108.08341 | 37999 ft | 355 kts | 268° |
| 2026-05-04 00:55 | 35.00785 | -108.14345 | 37970 ft | 354 kts | 268° |
| 2026-05-04 00:55 | 35.00559 | -108.20350 | 37934 ft | 355 kts | 268° |
| 2026-05-04 00:56 | 35.00329 | -108.26365 | 37897 ft | 355 kts | 268° |
| 2026-05-04 00:56 | 35.00096 | -108.32390 | 37888 ft | 356 kts | 268° |
| 2026-05-04 00:57 | 34.99859 | -108.38426 | 37885 ft | 357 kts | 268° |
| 2026-05-04 00:57 | 34.99619 | -108.44482 | 37868 ft | 357 kts | 268° |
| 2026-05-04 00:58 | 34.99376 | -108.50507 | 37870 ft | 356 kts | 268° |
| 2026-05-04 00:58 | 34.99131 | -108.56546 | 37866 ft | 357 kts | 268° |
| 2026-05-04 00:59 | 34.98883 | -108.62557 | 37858 ft | 356 kts | 268° |
| 2026-05-04 00:59 | 34.98632 | -108.68592 | 37855 ft | 357 kts | 268° |
| 2026-05-04 01:00 | 34.98377 | -108.74634 | 37851 ft | 357 kts | 268° |
| 2026-05-04 01:00 | 34.98118 | -108.80680 | 37848 ft | 357 kts | 268° |
| 2026-05-04 01:01 | 34.97858 | -108.86728 | 37845 ft | 358 kts | 268° |
| 2026-05-04 01:01 | 34.97592 | -108.92799 | 37843 ft | 358 kts | 268° |
| 2026-05-04 01:02 | 34.97326 | -108.98826 | 37844 ft | 358 kts | 268° |
| 2026-05-04 01:02 | 34.97055 | -109.04897 | 37834 ft | 359 kts | 268° |
| 2026-05-04 01:03 | 34.96781 | -109.10971 | 37837 ft | 359 kts | 268° |
| 2026-05-04 01:03 | 34.96499 | -109.17046 | 37837 ft | 359 kts | 267° |
| 2026-05-04 01:04 | 34.96096 | -109.23120 | 37842 ft | 359 kts | 266° |
| 2026-05-04 01:04 | 34.95675 | -109.29194 | 37842 ft | 359 kts | 266° |
| 2026-05-04 01:05 | 34.95268 | -109.35244 | 37838 ft | 359 kts | 266° |
| 2026-05-04 01:05 | 34.94860 | -109.41323 | 37837 ft | 360 kts | 266° |
| 2026-05-04 01:06 | 34.94451 | -109.47362 | 37830 ft | 360 kts | 266° |
| 2026-05-04 01:06 | 34.94037 | -109.53447 | 37834 ft | 360 kts | 266° |
| 2026-05-04 01:07 | 34.93618 | -109.59542 | 37829 ft | 361 kts | 266° |
| 2026-05-04 01:07 | 34.93197 | -109.65629 | 37828 ft | 361 kts | 266° |
| 2026-05-04 01:08 | 34.92772 | -109.71732 | 37825 ft | 362 kts | 266° |
| 2026-05-04 01:08 | 34.92343 | -109.77842 | 37824 ft | 362 kts | 266° |
| 2026-05-04 01:09 | 34.91911 | -109.83951 | 37817 ft | 362 kts | 266° |
| 2026-05-04 01:09 | 34.91476 | -109.90060 | 37814 ft | 362 kts | 266° |
| 2026-05-04 01:10 | 34.91041 | -109.96131 | 37816 ft | 362 kts | 266° |
| 2026-05-04 01:10 | 34.90600 | -110.02236 | 37821 ft | 362 kts | 266° |
| 2026-05-04 01:11 | 34.90155 | -110.08354 | 37820 ft | 361 kts | 266° |
| 2026-05-04 01:11 | 34.89710 | -110.14424 | 37825 ft | 361 kts | 266° |
| 2026-05-04 01:12 | 34.89266 | -110.20444 | 37810 ft | 358 kts | 266° |
| 2026-05-04 01:12 | 34.88819 | -110.26478 | 37816 ft | 358 kts | 266° |
| 2026-05-04 01:13 | 34.88368 | -110.32509 | 37821 ft | 357 kts | 266° |
| 2026-05-04 01:13 | 34.87915 | -110.38528 | 37847 ft | 357 kts | 266° |
| 2026-05-04 01:14 | 34.87459 | -110.44540 | 37873 ft | 357 kts | 265° |
| 2026-05-04 01:14 | 34.87001 | -110.50561 | 37899 ft | 357 kts | 265° |
| 2026-05-04 01:15 | 34.86542 | -110.56520 | 37918 ft | 356 kts | 265° |
| 2026-05-04 01:15 | 34.86078 | -110.62515 | 37932 ft | 356 kts | 265° |
| 2026-05-04 01:16 | 34.85611 | -110.68534 | 37940 ft | 356 kts | 265° |
| 2026-05-04 01:16 | 34.85142 | -110.74531 | 37936 ft | 356 kts | 265° |
| 2026-05-04 01:17 | 34.84670 | -110.80525 | 37926 ft | 355 kts | 265° |
| 2026-05-04 01:17 | 34.84194 | -110.86524 | 37911 ft | 355 kts | 265° |
| 2026-05-04 01:18 | 34.83719 | -110.92472 | 37891 ft | 355 kts | 265° |
| 2026-05-04 01:18 | 34.83238 | -110.98468 | 37880 ft | 355 kts | 265° |
| 2026-05-04 01:19 | 34.82754 | -111.04455 | 37863 ft | 356 kts | 265° |
| 2026-05-04 01:19 | 34.82267 | -111.10448 | 37861 ft | 356 kts | 265° |
| 2026-05-04 01:20 | 34.81776 | -111.16446 | 37869 ft | 356 kts | 265° |
| 2026-05-04 01:20 | 34.81281 | -111.22454 | 37878 ft | 357 kts | 265° |
| 2026-05-04 01:21 | 34.80847 | -111.27710 | 37896 ft | 357 kts | 265° |
| 2026-05-04 01:21 | 34.80348 | -111.33694 | 37884 ft | 354 kts | 265° |
| 2026-05-04 01:22 | 34.79849 | -111.39645 | 37904 ft | 354 kts | 265° |
| 2026-05-04 01:22 | 34.79351 | -111.45567 | 37913 ft | 353 kts | 265° |
| 2026-05-04 01:23 | 34.78846 | -111.51527 | 37929 ft | 352 kts | 265° |
| 2026-05-04 01:23 | 34.78345 | -111.57411 | 37941 ft | 351 kts | 265° |
| 2026-05-04 01:24 | 34.77839 | -111.63311 | 37960 ft | 350 kts | 264° |
| 2026-05-04 01:24 | 34.77332 | -111.69191 | 37971 ft | 348 kts | 264° |
| 2026-05-04 01:25 | 34.76826 | -111.75043 | 37980 ft | 347 kts | 264° |
| 2026-05-04 01:25 | 34.76318 | -111.80863 | 37978 ft | 346 kts | 264° |
| 2026-05-04 01:26 | 34.75813 | -111.86628 | 37959 ft | 344 kts | 264° |
| 2026-05-04 01:26 | 34.75307 | -111.92364 | 37938 ft | 343 kts | 264° |
| 2026-05-04 01:27 | 34.74797 | -111.98120 | 37912 ft | 342 kts | 264° |
| 2026-05-04 01:27 | 34.74371 | -112.02899 | 37890 ft | 341 kts | 264° |
| 2026-05-04 01:28 | 34.73858 | -112.08635 | 37860 ft | 341 kts | 264° |
| 2026-05-04 01:28 | 34.73344 | -112.14362 | 37886 ft | 340 kts | 264° |
| 2026-05-04 01:29 | 34.72828 | -112.20081 | 37913 ft | 341 kts | 264° |
| 2026-05-04 01:29 | 34.72307 | -112.25812 | 37956 ft | 341 kts | 264° |
| 2026-05-04 01:30 | 34.71782 | -112.31547 | 37977 ft | 341 kts | 264° |
| 2026-05-04 01:30 | 34.71259 | -112.37238 | 37994 ft | 341 kts | 264° |
| 2026-05-04 01:31 | 34.70729 | -112.42973 | 37994 ft | 341 kts | 264° |
| 2026-05-04 01:31 | 34.70198 | -112.48699 | 37994 ft | 341 kts | 264° |
| 2026-05-04 01:32 | 34.69546 | -112.54412 | 37984 ft | 342 kts | 262° |
| 2026-05-04 01:32 | 34.68853 | -112.60130 | 37958 ft | 342 kts | 263° |
| 2026-05-04 01:33 | 34.68175 | -112.65847 | 37923 ft | 340 kts | 263° |
| 2026-05-04 01:33 | 34.67507 | -112.71510 | 37890 ft | 337 kts | 263° |
| 2026-05-04 01:34 | 34.66838 | -112.77161 | 37860 ft | 338 kts | 263° |
| 2026-05-04 01:34 | 34.66169 | -112.82792 | 37839 ft | 336 kts | 263° |
| 2026-05-04 01:35 | 34.65499 | -112.88418 | 37812 ft | 337 kts | 262° |
| 2026-05-04 01:35 | 34.64828 | -112.94013 | 37802 ft | 334 kts | 263° |
| 2026-05-04 01:36 | 34.64152 | -112.99634 | 37795 ft | 334 kts | 262° |
| 2026-05-04 01:36 | 34.63482 | -113.05185 | 37792 ft | 334 kts | 263° |
| 2026-05-04 01:37 | 34.62807 | -113.10760 | 37793 ft | 334 kts | 262° |
| 2026-05-04 01:37 | 34.62133 | -113.16323 | 37791 ft | 332 kts | 262° |
| 2026-05-04 01:38 | 34.61458 | -113.21843 | 37779 ft | 331 kts | 262° |
| 2026-05-04 01:38 | 34.60779 | -113.27346 | 37773 ft | 330 kts | 262° |
| 2026-05-04 01:39 | 34.60098 | -113.32873 | 37769 ft | 331 kts | 262° |
| 2026-05-04 01:39 | 34.59418 | -113.38385 | 37759 ft | 329 kts | 262° |
| 2026-05-04 01:40 | 34.58743 | -113.43827 | 37758 ft | 329 kts | 262° |
| 2026-05-04 01:40 | 34.58061 | -113.49303 | 37751 ft | 328 kts | 262° |
| 2026-05-04 01:41 | 34.57379 | -113.54774 | 37751 ft | 328 kts | 262° |
| 2026-05-04 01:41 | 34.56695 | -113.60244 | 37743 ft | 327 kts | 262° |
| 2026-05-04 01:42 | 34.56018 | -113.65693 | 37747 ft | 327 kts | 262° |
| 2026-05-04 01:42 | 34.55417 | -113.71174 | 37743 ft | 326 kts | 263° |
| 2026-05-04 01:43 | 34.54827 | -113.76619 | 37742 ft | 325 kts | 262° |
| 2026-05-04 01:43 | 34.54224 | -113.82064 | 37733 ft | 324 kts | 262° |
| 2026-05-04 01:44 | 34.53621 | -113.87466 | 37735 ft | 323 kts | 262° |
| 2026-05-04 01:44 | 34.53016 | -113.92856 | 37729 ft | 322 kts | 262° |
| 2026-05-04 01:45 | 34.52413 | -113.98205 | 37726 ft | 322 kts | 262° |
| 2026-05-04 01:45 | 34.51413 | -114.06228 | 37724 ft | 321 kts | 256° |
| 2026-05-04 01:46 | 34.50270 | -114.11452 | 37726 ft | 320 kts | 258° |
| 2026-05-04 01:46 | 34.49202 | -114.16697 | 37729 ft | 320 kts | 257° |
| 2026-05-04 01:47 | 34.48102 | -114.21930 | 37733 ft | 320 kts | 257° |
| 2026-05-04 01:47 | 34.47005 | -114.27162 | 37736 ft | 320 kts | 257° |
| 2026-05-04 01:48 | 34.45906 | -114.32402 | 37746 ft | 320 kts | 257° |
| 2026-05-04 01:48 | 34.44806 | -114.37634 | 37740 ft | 320 kts | 257° |
| 2026-05-04 01:49 | 34.43705 | -114.42859 | 37738 ft | 320 kts | 257° |
| 2026-05-04 01:49 | 34.42605 | -114.48073 | 37730 ft | 319 kts | 257° |
| 2026-05-04 01:50 | 34.41505 | -114.53271 | 37723 ft | 318 kts | 257° |
| 2026-05-04 01:50 | 34.40405 | -114.58457 | 37716 ft | 317 kts | 257° |
| 2026-05-04 01:51 | 34.39313 | -114.63595 | 37710 ft | 317 kts | 257° |
| 2026-05-04 01:51 | 34.38212 | -114.68764 | 37706 ft | 316 kts | 257° |
| 2026-05-04 01:52 | 34.37113 | -114.73912 | 37705 ft | 316 kts | 257° |
| 2026-05-04 01:52 | 34.36013 | -114.79051 | 37706 ft | 315 kts | 257° |
| 2026-05-04 01:53 | 34.34914 | -114.84174 | 37717 ft | 315 kts | 257° |
| 2026-05-04 01:53 | 34.33811 | -114.89307 | 37716 ft | 315 kts | 257° |
| 2026-05-04 01:54 | 34.32706 | -114.94435 | 37727 ft | 315 kts | 257° |
| 2026-05-04 01:54 | 34.31599 | -114.99567 | 37736 ft | 315 kts | 257° |
| 2026-05-04 01:55 | 34.30498 | -115.04657 | 37736 ft | 315 kts | 257° |
| 2026-05-04 01:55 | 34.29391 | -115.09758 | 37728 ft | 312 kts | 257° |
| 2026-05-04 01:56 | 34.28286 | -115.14847 | 37731 ft | 312 kts | 257° |
| 2026-05-04 01:56 | 34.27181 | -115.19924 | 37732 ft | 312 kts | 256° |
| 2026-05-04 01:57 | 34.26071 | -115.25009 | 37738 ft | 311 kts | 256° |
| 2026-05-04 01:57 | 34.24974 | -115.30026 | 37737 ft | 311 kts | 256° |
| 2026-05-04 01:58 | 34.23866 | -115.35084 | 37742 ft | 311 kts | 256° |
| 2026-05-04 01:58 | 34.22761 | -115.40113 | 37727 ft | 308 kts | 256° |
| 2026-05-04 01:59 | 34.21664 | -115.45098 | 37744 ft | 311 kts | 256° |
| 2026-05-04 01:59 | 34.20554 | -115.50132 | 37747 ft | 312 kts | 256° |
| 2026-05-04 02:00 | 34.19436 | -115.55185 | 37757 ft | 309 kts | 256° |
| 2026-05-04 02:00 | 34.18322 | -115.60216 | 37760 ft | 310 kts | 256° |
| 2026-05-04 02:01 | 34.17210 | -115.65229 | 37762 ft | 312 kts | 256° |
| 2026-05-04 02:01 | 34.16284 | -115.70211 | 37773 ft | 311 kts | 260° |
| 2026-05-04 02:02 | 34.15780 | -115.75226 | 37776 ft | 311 kts | 262° |
| 2026-05-04 02:02 | 34.15283 | -115.80422 | 37800 ft | 312 kts | 262° |
| 2026-05-04 02:03 | 34.14779 | -115.85628 | 37819 ft | 312 kts | 262° |
| 2026-05-04 02:03 | 34.14272 | -115.90839 | 37839 ft | 313 kts | 261° |
| 2026-05-04 02:04 | 34.13763 | -115.96042 | 37843 ft | 311 kts | 261° |
| 2026-05-04 02:04 | 34.13257 | -116.01219 | 37851 ft | 311 kts | 261° |
| 2026-05-04 02:05 | 34.12750 | -116.06408 | 37857 ft | 311 kts | 261° |
| 2026-05-04 02:05 | 34.12251 | -116.11484 | 37563 ft | 310 kts | 261° |
| 2026-05-04 02:06 | 34.11993 | -116.14092 | 36569 ft | 319 kts | 261° |
| 2026-05-04 02:06 | 34.11721 | -116.16809 | 35320 ft | 333 kts | 262° |
| 2026-05-04 02:06 | 34.11443 | -116.19605 | 34513 ft | 336 kts | 262° |
| 2026-05-04 02:06 | 34.11167 | -116.22401 | 33913 ft | 333 kts | 262° |
| 2026-05-04 02:07 | 34.10892 | -116.25174 | 33010 ft | 336 kts | 262° |
| 2026-05-04 02:07 | 34.10615 | -116.27967 | 32356 ft | 335 kts | 262° |
| 2026-05-04 02:07 | 34.10335 | -116.30771 | 31573 ft | 338 kts | 261° |
| 2026-05-04 02:07 | 34.10036 | -116.33631 | 30982 ft | 354 kts | 261° |
| 2026-05-04 02:08 | 34.09708 | -116.36662 | 30670 ft | 370 kts | 261° |
| 2026-05-04 02:08 | 34.09380 | -116.39697 | 30322 ft | 372 kts | 261° |
| 2026-05-04 02:08 | 34.09100 | -116.42302 | 29898 ft | 371 kts | 261° |
| 2026-05-04 02:08 | 34.08769 | -116.45384 | 29382 ft | 369 kts | 261° |
| 2026-05-04 02:09 | 34.08442 | -116.48432 | 28927 ft | 367 kts | 261° |
| 2026-05-04 02:09 | 34.08113 | -116.51477 | 28562 ft | 363 kts | 261° |
| 2026-05-04 02:09 | 34.07790 | -116.54472 | 28159 ft | 356 kts | 261° |
| 2026-05-04 02:09 | 34.07470 | -116.57423 | 27514 ft | 353 kts | 261° |
| 2026-05-04 02:10 | 34.07161 | -116.60324 | 27109 ft | 345 kts | 261° |
| 2026-05-04 02:10 | 34.06887 | -116.63204 | 26685 ft | 346 kts | 262° |
| 2026-05-04 02:10 | 34.06627 | -116.66094 | 26241 ft | 348 kts | 262° |
| 2026-05-04 02:10 | 34.06370 | -116.68962 | 25814 ft | 347 kts | 262° |
| 2026-05-04 02:11 | 34.06109 | -116.71838 | 25379 ft | 344 kts | 262° |
| 2026-05-04 02:11 | 34.05845 | -116.74701 | 24942 ft | 343 kts | 262° |
| 2026-05-04 02:11 | 34.05576 | -116.77562 | 24486 ft | 344 kts | 262° |
| 2026-05-04 02:11 | 34.05307 | -116.80425 | 24089 ft | 343 kts | 262° |
| 2026-05-04 02:12 | 34.05040 | -116.83280 | 23662 ft | 342 kts | 262° |
| 2026-05-04 02:12 | 34.04773 | -116.86124 | 23136 ft | 340 kts | 261° |
| 2026-05-04 02:12 | 34.04508 | -116.88937 | 22787 ft | 336 kts | 262° |
| 2026-05-04 02:12 | 34.04199 | -116.91729 | 22386 ft | 335 kts | 259° |
| 2026-05-04 02:13 | 34.03833 | -116.94498 | 21965 ft | 334 kts | 259° |
| 2026-05-04 02:13 | 34.03585 | -116.96311 | 21703 ft | 332 kts | 259° |
| 2026-05-04 02:13 | 34.03208 | -116.99074 | 21273 ft | 330 kts | 259° |
| 2026-05-04 02:13 | 34.02845 | -117.01788 | 20866 ft | 328 kts | 259° |
| 2026-05-04 02:14 | 34.02498 | -117.04432 | 20465 ft | 326 kts | 259° |
| 2026-05-04 02:14 | 34.02166 | -117.07189 | 20050 ft | 324 kts | 260° |
| 2026-05-04 02:14 | 34.01855 | -117.09864 | 19643 ft | 322 kts | 260° |
| 2026-05-04 02:14 | 34.01545 | -117.12531 | 19237 ft | 321 kts | 260° |
| 2026-05-04 02:15 | 34.01233 | -117.15194 | 18833 ft | 319 kts | 260° |
| 2026-05-04 02:15 | 34.00920 | -117.17836 | 18428 ft | 318 kts | 259° |
| 2026-05-04 02:15 | 34.00605 | -117.20480 | 17991 ft | 316 kts | 259° |
| 2026-05-04 02:15 | 34.00293 | -117.23096 | 17563 ft | 315 kts | 259° |
| 2026-05-04 02:16 | 33.99979 | -117.25719 | 17156 ft | 318 kts | 259° |
| 2026-05-04 02:16 | 33.99663 | -117.28369 | 16755 ft | 322 kts | 259° |
| 2026-05-04 02:16 | 33.99344 | -117.31027 | 16332 ft | 319 kts | 259° |
| 2026-05-04 02:16 | 33.99034 | -117.33634 | 15962 ft | 319 kts | 259° |
| 2026-05-04 02:17 | 33.98720 | -117.36318 | 15546 ft | 320 kts | 259° |
| 2026-05-04 02:17 | 33.98413 | -117.38942 | 15139 ft | 320 kts | 259° |
| 2026-05-04 02:17 | 33.98100 | -117.41606 | 14734 ft | 321 kts | 259° |
| 2026-05-04 02:17 | 33.97790 | -117.44241 | 14395 ft | 316 kts | 259° |
| 2026-05-04 02:18 | 33.97516 | -117.46863 | 13920 ft | 316 kts | 263° |
| 2026-05-04 02:18 | 33.97567 | -117.49505 | 13500 ft | 315 kts | 272° |
| 2026-05-04 02:18 | 33.97999 | -117.52088 | 13093 ft | 317 kts | 282° |
| 2026-05-04 02:18 | 33.98619 | -117.54639 | 12704 ft | 316 kts | 282° |
| 2026-05-04 02:19 | 33.99224 | -117.57176 | 12299 ft | 312 kts | 282° |
| 2026-05-04 02:19 | 33.99809 | -117.59642 | 12152 ft | 300 kts | 282° |
| 2026-05-04 02:19 | 34.00372 | -117.62026 | 11839 ft | 293 kts | 282° |
| 2026-05-04 02:19 | 34.00925 | -117.64383 | 11415 ft | 292 kts | 282° |
| 2026-05-04 02:20 | 34.01476 | -117.66738 | 10988 ft | 291 kts | 282° |
| 2026-05-04 02:20 | 34.01941 | -117.69094 | 10576 ft | 287 kts | 274° |
| 2026-05-04 02:20 | 34.02041 | -117.71472 | 10165 ft | 282 kts | 264° |
| 2026-05-04 02:20 | 34.01826 | -117.73802 | 9724 ft | 280 kts | 260° |
| 2026-05-04 02:21 | 34.01588 | -117.76118 | 9312 ft | 277 kts | 261° |
| 2026-05-04 02:21 | 34.01364 | -117.78404 | 9006 ft | 272 kts | 261° |
| 2026-05-04 02:21 | 34.01143 | -117.80687 | 8617 ft | 275 kts | 261° |
| 2026-05-04 02:21 | 34.01116 | -117.80965 | 8574 ft | 275 kts | 261° |
| 2026-05-04 02:22 | 34.00957 | -117.82611 | 8326 ft | 274 kts | 261° |
| 2026-05-04 02:22 | 34.00894 | -117.83254 | 8229 ft | 273 kts | 261° |
| 2026-05-04 02:22 | 34.00676 | -117.85503 | 7990 ft | 270 kts | 261° |
| 2026-05-04 02:22 | 34.00463 | -117.87689 | 7740 ft | 272 kts | 261° |
| 2026-05-04 02:23 | 34.00235 | -117.90034 | 7339 ft | 273 kts | 263° |
| 2026-05-04 02:23 | 34.00113 | -117.92262 | 7422 ft | 260 kts | 264° |
| 2026-05-04 02:23 | 33.99956 | -117.94470 | 7454 ft | 271 kts | 262° |
| 2026-05-04 02:23 | 33.99729 | -117.96724 | 7340 ft | 269 kts | 261° |
| 2026-05-04 02:24 | 33.99495 | -117.98941 | 7141 ft | 257 kts | 261° |
| 2026-05-04 02:24 | 33.99283 | -118.00969 | 6904 ft | 231 kts | 261° |
| 2026-05-04 02:24 | 33.99091 | -118.02790 | 6662 ft | 210 kts | 261° |
| 2026-05-04 02:24 | 33.98914 | -118.04467 | 6448 ft | 193 kts | 261° |
| 2026-05-04 02:25 | 33.98755 | -118.05980 | 6240 ft | 171 kts | 261° |
| 2026-05-04 02:25 | 33.98618 | -118.07298 | 6008 ft | 148 kts | 261° |
| 2026-05-04 02:25 | 33.98497 | -118.08447 | 5809 ft | 133 kts | 261° |
| 2026-05-04 02:25 | 33.98441 | -118.08979 | 5722 ft | 130 kts | 261° |
| 2026-05-04 02:26 | 33.98323 | -118.10096 | 5550 ft | 138 kts | 261° |
| 2026-05-04 02:26 | 33.98203 | -118.11239 | 5359 ft | 136 kts | 262° |
| 2026-05-04 02:26 | 33.98086 | -118.12355 | 5184 ft | 137 kts | 261° |
| 2026-05-04 02:26 | 33.97967 | -118.13493 | 5001 ft | 137 kts | 261° |
| 2026-05-04 02:27 | 33.97848 | -118.14634 | 4817 ft | 137 kts | 261° |
| 2026-05-04 02:27 | 33.97730 | -118.15766 | 4630 ft | 136 kts | 261° |
| 2026-05-04 02:27 | 33.97612 | -118.16897 | 4453 ft | 135 kts | 261° |
| 2026-05-04 02:27 | 33.97496 | -118.18016 | 4266 ft | 134 kts | 262° |
| 2026-05-04 02:28 | 33.97380 | -118.19129 | 4087 ft | 133 kts | 262° |
| 2026-05-04 02:28 | 33.97265 | -118.20237 | 3900 ft | 132 kts | 262° |
| 2026-05-04 02:28 | 33.97152 | -118.21324 | 3721 ft | 132 kts | 262° |
| 2026-05-04 02:28 | 33.97025 | -118.22423 | 3459 ft | 132 kts | 260° |
| 2026-05-04 02:29 | 33.96874 | -118.23497 | 3151 ft | 130 kts | 260° |
| 2026-05-04 02:29 | 33.96747 | -118.24577 | 2793 ft | 130 kts | 263° |
| 2026-05-04 02:29 | 33.96668 | -118.25638 | 2490 ft | 125 kts | 264° |
| 2026-05-04 02:29 | 33.96562 | -118.26649 | 2208 ft | 121 kts | 261° |
| 2026-05-04 02:30 | 33.96483 | -118.27645 | 1989 ft | 116 kts | 265° |
| 2026-05-04 02:30 | 33.96430 | -118.28583 | 1914 ft | 116 kts | 263° |
| 2026-05-04 02:30 | 33.96281 | -118.29570 | 1989 ft | 124 kts | 259° |
| 2026-05-04 02:30 | 33.96158 | -118.30618 | 1950 ft | 128 kts | 261° |
| 2026-05-04 02:31 | 33.96039 | -118.31675 | 1673 ft | 127 kts | 265° |
| 2026-05-04 02:31 | 33.95985 | -118.32726 | 1404 ft | 123 kts | 264° |
| 2026-05-04 02:31 | 33.95896 | -118.33726 | 1200 ft | 116 kts | 263° |
| 2026-05-04 02:31 | 33.95788 | -118.34665 | 1091 ft | 114 kts | 262° |
| 2026-05-04 02:32 | 33.95670 | -118.35661 | 910 ft | 124 kts | 263° |
| 2026-05-04 02:32 | 33.95556 | -118.36671 | 736 ft | 120 kts | 264° |
| 2026-05-04 02:32 | 33.95487 | -118.37660 | 575 ft | 116 kts | 263° |
| 2026-05-04 02:32 | 33.95388 | -118.38644 | 401 ft | 121 kts | 261° |
| 2026-05-04 02:33 | 33.95274 | -118.39635 | 245 ft | 117 kts | 262° |
| 2026-05-04 02:33 | 33.95169 | -118.40598 | 133 ft | 114 kts | 261° |
| 2026-05-04 02:33 | 33.95092 | -118.41316 | 121 ft | 73 kts | 262° |
| 2026-05-04 02:33 | 33.95044 | -118.41708 | 123 ft | 31 kts | 252° |
| 2026-05-04 02:34 | 33.94938 | -118.41928 | 124 ft | 30 kts | 232° |
| 2026-05-04 02:34 | 33.94845 | -118.42076 | 124 ft | 22 kts | 233° |
| 2026-05-04 02:34 | 33.94747 | -118.42225 | 125 ft | 21 kts | 214° |
| 2026-05-04 02:34 | 33.94704 | -118.42233 | 122 ft | 0 kts | 166° |
| 2026-05-04 02:35 | 33.94695 | -118.42227 | 123 ft | 5 kts | 146° |
| 2026-05-04 02:35 | 33.94690 | -118.42147 | 122 ft | 17 kts | 84° |
| 2026-05-04 02:36 | 33.94710 | -118.41980 | 125 ft | 26 kts | 83° |
| 2026-05-04 02:36 | 33.94734 | -118.41727 | 124 ft | 33 kts | 80° |
| 2026-05-04 02:36 | 33.94766 | -118.41439 | 124 ft | 36 kts | 76° |
| 2026-05-04 02:36 | 33.94800 | -118.41224 | 125 ft | 27 kts | 82° |
| 2026-05-04 02:37 | 33.94827 | -118.40966 | 124 ft | 34 kts | 82° |
| 2026-05-04 02:37 | 33.94852 | -118.40742 | 125 ft | 22 kts | 83° |
| 2026-05-04 02:37 | 33.94833 | -118.40605 | 124 ft | 16 kts | 150° |
| 2026-05-04 02:37 | 33.94795 | -118.40494 | 125 ft | 12 kts | 85° |
| 2026-05-04 02:38 | 33.94756 | -118.40440 | 123 ft | 9 kts | 174° |
| 2026-05-04 02:38 | 33.94744 | -118.40438 | 123 ft | 0 kts | 174° |